sensor_id;sensor_type;location;lat;lon;timestamp;P1;durP1;ratioP1;P2;durP2;ratioP2
45059;SDS011;30799;49.060;9.312;2023-04-10T00:00:22;2.90;;;2.70;;
45059;SDS011;30799;49.060;9.312;2023-04-10T00:02:48;2.75;;;2.55;;
45059;SDS011;30799;49.060;9.312;2023-04-10T00:05:15;2.47;;;2.38;;
45059;SDS011;30799;49.060;9.312;2023-04-10T00:07:42;3.35;;;2.90;;
45059;SDS011;30799;49.060;9.312;2023-04-10T00:10:09;2.88;;;2.67;;
45059;SDS011;30799;49.060;9.312;2023-04-10T00:12:36;2.90;;;2.70;;
45059;SDS011;30799;49.060;9.312;2023-04-10T00:15:03;2.70;;;2.50;;
45059;SDS011;30799;49.060;9.312;2023-04-10T00:17:30;2.85;;;2.65;;
45059;SDS011;30799;49.060;9.312;2023-04-10T00:19:57;2.78;;;2.58;;
45059;SDS011;30799;49.060;9.312;2023-04-10T00:22:24;2.80;;;2.60;;
45059;SDS011;30799;49.060;9.312;2023-04-10T00:24:51;3.17;;;2.75;;
45059;SDS011;30799;49.060;9.312;2023-04-10T00:27:18;3.47;;;3.17;;
45059;SDS011;30799;49.060;9.312;2023-04-10T00:29:45;3.13;;;2.88;;
45059;SDS011;30799;49.060;9.312;2023-04-10T00:32:12;2.92;;;2.63;;
45059;SDS011;30799;49.060;9.312;2023-04-10T00:34:39;2.88;;;2.67;;
45059;SDS011;30799;49.060;9.312;2023-04-10T00:37:05;3.05;;;2.80;;
45059;SDS011;30799;49.060;9.312;2023-04-10T00:39:32;3.38;;;3.08;;
45059;SDS011;30799;49.060;9.312;2023-04-10T00:41:58;3.05;;;2.80;;
45059;SDS011;30799;49.060;9.312;2023-04-10T00:44:26;2.97;;;2.78;;
45059;SDS011;30799;49.060;9.312;2023-04-10T00:46:53;2.85;;;2.65;;
45059;SDS011;30799;49.060;9.312;2023-04-10T00:49:20;3.17;;;2.97;;
45059;SDS011;30799;49.060;9.312;2023-04-10T00:51:47;2.65;;;2.45;;
45059;SDS011;30799;49.060;9.312;2023-04-10T00:54:14;2.78;;;2.58;;
45059;SDS011;30799;49.060;9.312;2023-04-10T00:56:40;2.72;;;2.53;;
45059;SDS011;30799;49.060;9.312;2023-04-10T00:59:08;2.80;;;2.60;;
45059;SDS011;30799;49.060;9.312;2023-04-10T01:01:35;2.78;;;2.58;;
45059;SDS011;30799;49.060;9.312;2023-04-10T01:04:02;2.72;;;2.53;;
45059;SDS011;30799;49.060;9.312;2023-04-10T01:06:33;2.80;;;2.60;;
45059;SDS011;30799;49.060;9.312;2023-04-10T01:11:53;2.80;;;2.60;;
45059;SDS011;30799;49.060;9.312;2023-04-10T01:14:30;3.03;;;2.83;;
45059;SDS011;30799;49.060;9.312;2023-04-10T01:17:06;2.83;;;2.63;;
45059;SDS011;30799;49.060;9.312;2023-04-10T01:20:03;3.00;;;2.80;;
45059;SDS011;30799;49.060;9.312;2023-04-10T01:23:03;3.00;;;2.80;;
45059;SDS011;30799;49.060;9.312;2023-04-10T01:25:32;2.92;;;2.72;;
45059;SDS011;30799;49.060;9.312;2023-04-10T01:30:47;3.00;;;2.80;;
45059;SDS011;30799;49.060;9.312;2023-04-10T01:33:19;2.95;;;2.75;;
45059;SDS011;30799;49.060;9.312;2023-04-10T01:35:48;2.65;;;2.45;;
45059;SDS011;30799;49.060;9.312;2023-04-10T01:38:19;2.53;;;2.33;;
45059;SDS011;30799;49.060;9.312;2023-04-10T01:40:49;3.67;;;2.70;;
45059;SDS011;30799;49.060;9.312;2023-04-10T01:43:18;3.10;;;2.90;;
45059;SDS011;30799;49.060;9.312;2023-04-10T01:45:47;2.58;;;2.38;;
45059;SDS011;30799;49.060;9.312;2023-04-10T01:48:16;2.90;;;2.70;;
45059;SDS011;30799;49.060;9.312;2023-04-10T01:50:44;3.15;;;2.95;;
45059;SDS011;30799;49.060;9.312;2023-04-10T01:53:11;2.88;;;2.67;;
45059;SDS011;30799;49.060;9.312;2023-04-10T01:55:39;3.28;;;2.97;;
45059;SDS011;30799;49.060;9.312;2023-04-10T01:58:06;3.08;;;2.88;;
45059;SDS011;30799;49.060;9.312;2023-04-10T02:00:37;2.75;;;2.55;;
45059;SDS011;30799;49.060;9.312;2023-04-10T02:03:05;2.72;;;2.53;;
45059;SDS011;30799;49.060;9.312;2023-04-10T02:05:35;3.08;;;2.88;;
45059;SDS011;30799;49.060;9.312;2023-04-10T02:08:22;2.63;;;2.42;;
45059;SDS011;30799;49.060;9.312;2023-04-10T02:11:01;3.05;;;2.85;;
45059;SDS011;30799;49.060;9.312;2023-04-10T02:13:36;2.83;;;2.63;;
45059;SDS011;30799;49.060;9.312;2023-04-10T02:16:06;2.90;;;2.70;;
45059;SDS011;30799;49.060;9.312;2023-04-10T02:18:34;2.72;;;2.53;;
45059;SDS011;30799;49.060;9.312;2023-04-10T02:21:03;2.72;;;2.53;;
45059;SDS011;30799;49.060;9.312;2023-04-10T02:23:30;2.85;;;2.65;;
45059;SDS011;30799;49.060;9.312;2023-04-10T02:25:57;2.63;;;2.42;;
45059;SDS011;30799;49.060;9.312;2023-04-10T02:28:23;2.72;;;2.53;;
45059;SDS011;30799;49.060;9.312;2023-04-10T02:30:51;2.60;;;2.40;;
45059;SDS011;30799;49.060;9.312;2023-04-10T02:33:17;2.70;;;2.50;;
45059;SDS011;30799;49.060;9.312;2023-04-10T02:35:44;3.08;;;2.88;;
45059;SDS011;30799;49.060;9.312;2023-04-10T02:38:11;2.83;;;2.63;;
45059;SDS011;30799;49.060;9.312;2023-04-10T02:40:38;2.92;;;2.72;;
45059;SDS011;30799;49.060;9.312;2023-04-10T02:43:05;2.97;;;2.75;;
45059;SDS011;30799;49.060;9.312;2023-04-10T02:45:32;2.63;;;2.42;;
45059;SDS011;30799;49.060;9.312;2023-04-10T02:47:58;2.90;;;2.70;;
45059;SDS011;30799;49.060;9.312;2023-04-10T02:50:25;3.00;;;2.80;;
45059;SDS011;30799;49.060;9.312;2023-04-10T02:52:55;2.65;;;2.45;;
45059;SDS011;30799;49.060;9.312;2023-04-10T02:55:21;2.95;;;2.75;;
45059;SDS011;30799;49.060;9.312;2023-04-10T02:57:48;2.65;;;2.45;;
45059;SDS011;30799;49.060;9.312;2023-04-10T03:00:15;2.90;;;2.70;;
45059;SDS011;30799;49.060;9.312;2023-04-10T03:02:44;2.97;;;2.78;;
45059;SDS011;30799;49.060;9.312;2023-04-10T03:05:11;2.78;;;2.58;;
45059;SDS011;30799;49.060;9.312;2023-04-10T03:07:38;2.85;;;2.65;;
45059;SDS011;30799;49.060;9.312;2023-04-10T03:10:04;3.00;;;2.80;;
45059;SDS011;30799;49.060;9.312;2023-04-10T03:12:32;2.80;;;2.60;;
45059;SDS011;30799;49.060;9.312;2023-04-10T03:14:58;2.72;;;2.53;;
45059;SDS011;30799;49.060;9.312;2023-04-10T03:17:25;2.90;;;2.70;;
45059;SDS011;30799;49.060;9.312;2023-04-10T03:19:52;2.95;;;2.75;;
45059;SDS011;30799;49.060;9.312;2023-04-10T03:22:18;3.08;;;2.88;;
45059;SDS011;30799;49.060;9.312;2023-04-10T03:24:45;2.78;;;2.58;;
45059;SDS011;30799;49.060;9.312;2023-04-10T03:27:12;2.80;;;2.60;;
45059;SDS011;30799;49.060;9.312;2023-04-10T03:29:38;2.75;;;2.55;;
45059;SDS011;30799;49.060;9.312;2023-04-10T03:32:05;2.75;;;2.55;;
45059;SDS011;30799;49.060;9.312;2023-04-10T03:34:32;3.25;;;3.05;;
45059;SDS011;30799;49.060;9.312;2023-04-10T03:36:58;2.92;;;2.72;;
45059;SDS011;30799;49.060;9.312;2023-04-10T03:39:25;3.17;;;2.88;;
45059;SDS011;30799;49.060;9.312;2023-04-10T03:41:52;2.92;;;2.72;;
45059;SDS011;30799;49.060;9.312;2023-04-10T03:44:18;2.88;;;2.67;;
45059;SDS011;30799;49.060;9.312;2023-04-10T03:46:45;2.72;;;2.53;;
45059;SDS011;30799;49.060;9.312;2023-04-10T03:49:12;3.00;;;2.80;;
45059;SDS011;30799;49.060;9.312;2023-04-10T03:51:38;2.67;;;2.47;;
45059;SDS011;30799;49.060;9.312;2023-04-10T03:54:05;2.90;;;2.70;;
45059;SDS011;30799;49.060;9.312;2023-04-10T03:56:32;2.75;;;2.55;;
45059;SDS011;30799;49.060;9.312;2023-04-10T03:58:58;2.90;;;2.65;;
45059;SDS011;30799;49.060;9.312;2023-04-10T04:01:25;2.85;;;2.65;;
45059;SDS011;30799;49.060;9.312;2023-04-10T04:03:52;3.10;;;2.90;;
45059;SDS011;30799;49.060;9.312;2023-04-10T04:06:20;2.85;;;2.65;;
45059;SDS011;30799;49.060;9.312;2023-04-10T04:08:47;2.65;;;2.45;;
45059;SDS011;30799;49.060;9.312;2023-04-10T04:11:14;2.70;;;2.50;;
45059;SDS011;30799;49.060;9.312;2023-04-10T04:13:40;2.70;;;2.50;;
45059;SDS011;30799;49.060;9.312;2023-04-10T04:16:07;2.80;;;2.60;;
45059;SDS011;30799;49.060;9.312;2023-04-10T04:18:35;2.90;;;2.70;;
45059;SDS011;30799;49.060;9.312;2023-04-10T04:21:01;2.70;;;2.50;;
45059;SDS011;30799;49.060;9.312;2023-04-10T04:23:28;2.70;;;2.50;;
45059;SDS011;30799;49.060;9.312;2023-04-10T04:25:55;3.00;;;2.80;;
45059;SDS011;30799;49.060;9.312;2023-04-10T04:28:22;2.78;;;2.58;;
45059;SDS011;30799;49.060;9.312;2023-04-10T04:30:49;3.00;;;2.80;;
45059;SDS011;30799;49.060;9.312;2023-04-10T04:33:16;3.05;;;2.85;;
45059;SDS011;30799;49.060;9.312;2023-04-10T04:35:42;2.60;;;2.40;;
45059;SDS011;30799;49.060;9.312;2023-04-10T04:38:09;3.10;;;2.90;;
45059;SDS011;30799;49.060;9.312;2023-04-10T04:40:36;2.65;;;2.45;;
45059;SDS011;30799;49.060;9.312;2023-04-10T04:43:02;2.80;;;2.60;;
45059;SDS011;30799;49.060;9.312;2023-04-10T04:45:29;2.53;;;2.33;;
45059;SDS011;30799;49.060;9.312;2023-04-10T04:47:56;2.63;;;2.42;;
45059;SDS011;30799;49.060;9.312;2023-04-10T04:50:22;3.05;;;2.83;;
45059;SDS011;30799;49.060;9.312;2023-04-10T04:52:49;3.00;;;2.80;;
45059;SDS011;30799;49.060;9.312;2023-04-10T04:55:16;2.80;;;2.60;;
45059;SDS011;30799;49.060;9.312;2023-04-10T04:57:42;2.70;;;2.50;;
45059;SDS011;30799;49.060;9.312;2023-04-10T05:00:09;2.80;;;2.60;;
45059;SDS011;30799;49.060;9.312;2023-04-10T05:02:36;2.55;;;2.35;;
45059;SDS011;30799;49.060;9.312;2023-04-10T05:05:03;3.40;;;2.65;;
45059;SDS011;30799;49.060;9.312;2023-04-10T05:07:30;2.90;;;2.70;;
45059;SDS011;30799;49.060;9.312;2023-04-10T05:09:58;2.63;;;2.42;;
45059;SDS011;30799;49.060;9.312;2023-04-10T05:12:24;2.70;;;2.50;;
45059;SDS011;30799;49.060;9.312;2023-04-10T05:14:51;2.72;;;2.53;;
45059;SDS011;30799;49.060;9.312;2023-04-10T05:17:18;2.78;;;2.58;;
45059;SDS011;30799;49.060;9.312;2023-04-10T05:19:44;2.70;;;2.50;;
45059;SDS011;30799;49.060;9.312;2023-04-10T05:22:11;2.80;;;2.60;;
45059;SDS011;30799;49.060;9.312;2023-04-10T05:24:38;2.67;;;2.47;;
45059;SDS011;30799;49.060;9.312;2023-04-10T05:27:04;2.75;;;2.55;;
45059;SDS011;30799;49.060;9.312;2023-04-10T05:29:31;2.80;;;2.60;;
45059;SDS011;30799;49.060;9.312;2023-04-10T05:31:57;2.80;;;2.60;;
45059;SDS011;30799;49.060;9.312;2023-04-10T05:34:24;2.63;;;2.42;;
45059;SDS011;30799;49.060;9.312;2023-04-10T05:36:51;2.85;;;2.65;;
45059;SDS011;30799;49.060;9.312;2023-04-10T05:39:17;2.80;;;2.60;;
45059;SDS011;30799;49.060;9.312;2023-04-10T05:41:44;2.80;;;2.60;;
45059;SDS011;30799;49.060;9.312;2023-04-10T05:44:11;2.67;;;2.47;;
45059;SDS011;30799;49.060;9.312;2023-04-10T05:46:37;2.70;;;2.50;;
45059;SDS011;30799;49.060;9.312;2023-04-10T05:49:04;3.17;;;2.88;;
45059;SDS011;30799;49.060;9.312;2023-04-10T05:51:31;2.88;;;2.67;;
45059;SDS011;30799;49.060;9.312;2023-04-10T05:53:57;2.70;;;2.50;;
45059;SDS011;30799;49.060;9.312;2023-04-10T05:56:24;3.20;;;3.00;;
45059;SDS011;30799;49.060;9.312;2023-04-10T05:58:51;3.53;;;3.22;;
45059;SDS011;30799;49.060;9.312;2023-04-10T06:01:18;3.13;;;2.85;;
45059;SDS011;30799;49.060;9.312;2023-04-10T06:03:44;3.17;;;2.97;;
45059;SDS011;30799;49.060;9.312;2023-04-10T06:06:12;3.00;;;2.80;;
45059;SDS011;30799;49.060;9.312;2023-04-10T06:08:38;2.88;;;2.67;;
45059;SDS011;30799;49.060;9.312;2023-04-10T06:11:05;3.03;;;2.83;;
45059;SDS011;30799;49.060;9.312;2023-04-10T06:13:32;3.35;;;3.15;;
45059;SDS011;30799;49.060;9.312;2023-04-10T06:15:59;3.50;;;3.20;;
45059;SDS011;30799;49.060;9.312;2023-04-10T06:18:26;3.30;;;3.00;;
45059;SDS011;30799;49.060;9.312;2023-04-10T06:20:52;3.20;;;2.90;;
45059;SDS011;30799;49.060;9.312;2023-04-10T06:23:19;3.53;;;3.22;;
45059;SDS011;30799;49.060;9.312;2023-04-10T06:25:46;3.17;;;2.92;;
45059;SDS011;30799;49.060;9.312;2023-04-10T06:28:13;2.92;;;2.72;;
45059;SDS011;30799;49.060;9.312;2023-04-10T06:30:39;3.20;;;2.90;;
45059;SDS011;30799;49.060;9.312;2023-04-10T06:33:06;2.92;;;2.72;;
45059;SDS011;30799;49.060;9.312;2023-04-10T06:35:33;2.58;;;2.38;;
45059;SDS011;30799;49.060;9.312;2023-04-10T06:38:00;2.60;;;2.40;;
45059;SDS011;30799;49.060;9.312;2023-04-10T06:40:28;3.05;;;2.85;;
45059;SDS011;30799;49.060;9.312;2023-04-10T06:42:56;3.35;;;3.08;;
45059;SDS011;30799;49.060;9.312;2023-04-10T06:45:22;3.22;;;3.03;;
45059;SDS011;30799;49.060;9.312;2023-04-10T06:47:49;3.35;;;3.10;;
45059;SDS011;30799;49.060;9.312;2023-04-10T06:50:16;3.00;;;2.80;;
45059;SDS011;30799;49.060;9.312;2023-04-10T06:52:43;3.33;;;3.13;;
45059;SDS011;30799;49.060;9.312;2023-04-10T06:55:10;3.22;;;3.03;;
45059;SDS011;30799;49.060;9.312;2023-04-10T06:57:40;2.70;;;2.50;;
45059;SDS011;30799;49.060;9.312;2023-04-10T07:00:07;3.25;;;2.95;;
45059;SDS011;30799;49.060;9.312;2023-04-10T07:02:34;2.80;;;2.60;;
45059;SDS011;30799;49.060;9.312;2023-04-10T07:05:01;2.88;;;2.67;;
45059;SDS011;30799;49.060;9.312;2023-04-10T07:07:28;3.00;;;2.80;;
45059;SDS011;30799;49.060;9.312;2023-04-10T07:09:54;2.60;;;2.40;;
45059;SDS011;30799;49.060;9.312;2023-04-10T07:12:22;3.22;;;3.03;;
45059;SDS011;30799;49.060;9.312;2023-04-10T07:14:49;2.83;;;2.63;;
45059;SDS011;30799;49.060;9.312;2023-04-10T07:17:16;3.08;;;2.78;;
45059;SDS011;30799;49.060;9.312;2023-04-10T07:19:42;3.22;;;2.92;;
45059;SDS011;30799;49.060;9.312;2023-04-10T07:22:09;3.00;;;2.80;;
45059;SDS011;30799;49.060;9.312;2023-04-10T07:24:36;2.70;;;2.50;;
45059;SDS011;30799;49.060;9.312;2023-04-10T07:27:03;2.85;;;2.65;;
45059;SDS011;30799;49.060;9.312;2023-04-10T07:29:29;2.83;;;2.63;;
45059;SDS011;30799;49.060;9.312;2023-04-10T07:31:56;3.47;;;3.17;;
45059;SDS011;30799;49.060;9.312;2023-04-10T07:34:24;3.17;;;2.88;;
45059;SDS011;30799;49.060;9.312;2023-04-10T07:36:51;2.80;;;2.60;;
45059;SDS011;30799;49.060;9.312;2023-04-10T07:39:17;3.10;;;2.88;;
45059;SDS011;30799;49.060;9.312;2023-04-10T07:41:44;3.17;;;2.97;;
45059;SDS011;30799;49.060;9.312;2023-04-10T07:44:11;3.05;;;2.80;;
45059;SDS011;30799;49.060;9.312;2023-04-10T07:46:39;3.13;;;2.92;;
45059;SDS011;30799;49.060;9.312;2023-04-10T07:49:06;3.08;;;2.88;;
45059;SDS011;30799;49.060;9.312;2023-04-10T07:51:34;3.03;;;2.83;;
45059;SDS011;30799;49.060;9.312;2023-04-10T07:54:02;2.88;;;2.67;;
45059;SDS011;30799;49.060;9.312;2023-04-10T07:56:29;3.10;;;2.90;;
45059;SDS011;30799;49.060;9.312;2023-04-10T07:58:58;3.00;;;2.80;;
45059;SDS011;30799;49.060;9.312;2023-04-10T08:01:28;2.85;;;2.65;;
45059;SDS011;30799;49.060;9.312;2023-04-10T08:03:55;2.50;;;2.30;;
45059;SDS011;30799;49.060;9.312;2023-04-10T08:06:22;3.03;;;2.83;;
45059;SDS011;30799;49.060;9.312;2023-04-10T08:08:49;3.05;;;2.85;;
45059;SDS011;30799;49.060;9.312;2023-04-10T08:11:24;2.78;;;2.58;;
45059;SDS011;30799;49.060;9.312;2023-04-10T08:13:53;2.70;;;2.50;;
45059;SDS011;30799;49.060;9.312;2023-04-10T08:16:22;3.08;;;2.85;;
45059;SDS011;30799;49.060;9.312;2023-04-10T08:18:50;2.88;;;2.67;;
45059;SDS011;30799;49.060;9.312;2023-04-10T08:21:21;3.00;;;2.80;;
45059;SDS011;30799;49.060;9.312;2023-04-10T08:23:58;2.75;;;2.55;;
45059;SDS011;30799;49.060;9.312;2023-04-10T08:26:27;2.67;;;2.47;;
45059;SDS011;30799;49.060;9.312;2023-04-10T08:28:55;2.80;;;2.60;;
45059;SDS011;30799;49.060;9.312;2023-04-10T08:31:24;2.92;;;2.72;;
45059;SDS011;30799;49.060;9.312;2023-04-10T08:33:53;2.70;;;2.50;;
45059;SDS011;30799;49.060;9.312;2023-04-10T08:36:20;2.67;;;2.47;;
45059;SDS011;30799;49.060;9.312;2023-04-10T08:38:47;3.08;;;2.88;;
45059;SDS011;30799;49.060;9.312;2023-04-10T08:41:15;2.90;;;2.70;;
45059;SDS011;30799;49.060;9.312;2023-04-10T08:43:43;2.75;;;2.53;;
45059;SDS011;30799;49.060;9.312;2023-04-10T08:46:14;3.03;;;2.83;;
45059;SDS011;30799;49.060;9.312;2023-04-10T08:48:45;2.70;;;2.50;;
45059;SDS011;30799;49.060;9.312;2023-04-10T08:53:46;2.40;;;2.30;;
45059;SDS011;30799;49.060;9.312;2023-04-10T08:56:16;2.70;;;2.50;;
45059;SDS011;30799;49.060;9.312;2023-04-10T08:58:43;2.72;;;2.53;;
45059;SDS011;30799;49.060;9.312;2023-04-10T09:01:11;2.67;;;2.47;;
45059;SDS011;30799;49.060;9.312;2023-04-10T09:03:37;2.80;;;2.60;;
45059;SDS011;30799;49.060;9.312;2023-04-10T09:06:05;2.72;;;2.53;;
45059;SDS011;30799;49.060;9.312;2023-04-10T09:08:32;2.58;;;2.38;;
45059;SDS011;30799;49.060;9.312;2023-04-10T09:10:59;3.03;;;2.80;;
45059;SDS011;30799;49.060;9.312;2023-04-10T09:13:35;2.45;;;2.25;;
45059;SDS011;30799;49.060;9.312;2023-04-10T09:16:06;2.83;;;2.63;;
45059;SDS011;30799;49.060;9.312;2023-04-10T09:18:50;2.47;;;2.35;;
45059;SDS011;30799;49.060;9.312;2023-04-10T09:23:44;2.72;;;2.53;;
45059;SDS011;30799;49.060;9.312;2023-04-10T09:26:25;2.30;;;2.20;;
45059;SDS011;30799;49.060;9.312;2023-04-10T09:28:56;2.33;;;2.13;;
45059;SDS011;30799;49.060;9.312;2023-04-10T09:31:33;2.75;;;2.55;;
45059;SDS011;30799;49.060;9.312;2023-04-10T09:34:17;2.45;;;2.25;;
45059;SDS011;30799;49.060;9.312;2023-04-10T09:36:52;2.80;;;2.60;;
45059;SDS011;30799;49.060;9.312;2023-04-10T09:39:32;2.63;;;2.42;;
45059;SDS011;30799;49.060;9.312;2023-04-10T09:42:09;2.45;;;2.25;;
45059;SDS011;30799;49.060;9.312;2023-04-10T09:44:37;2.83;;;2.63;;
45059;SDS011;30799;49.060;9.312;2023-04-10T09:47:26;2.47;;;2.28;;
45059;SDS011;30799;49.060;9.312;2023-04-10T09:49:53;2.78;;;2.58;;
45059;SDS011;30799;49.060;9.312;2023-04-10T09:52:22;2.30;;;2.20;;
45059;SDS011;30799;49.060;9.312;2023-04-10T09:54:55;2.47;;;2.28;;
45059;SDS011;30799;49.060;9.312;2023-04-10T09:57:24;2.67;;;2.47;;
45059;SDS011;30799;49.060;9.312;2023-04-10T09:59:52;3.08;;;2.88;;
45059;SDS011;30799;49.060;9.312;2023-04-10T10:02:21;2.00;;;1.90;;
45059;SDS011;30799;49.060;9.312;2023-04-10T10:04:50;2.55;;;2.35;;
45059;SDS011;30799;49.060;9.312;2023-04-10T10:07:18;2.20;;;2.05;;
45059;SDS011;30799;49.060;9.312;2023-04-10T10:09:47;2.60;;;2.40;;
45059;SDS011;30799;49.060;9.312;2023-04-10T10:12:28;2.13;;;2.03;;
45059;SDS011;30799;49.060;9.312;2023-04-10T10:15:09;2.65;;;2.45;;
45059;SDS011;30799;49.060;9.312;2023-04-10T10:20:27;2.00;;;1.90;;
45059;SDS011;30799;49.060;9.312;2023-04-10T10:22:57;2.28;;;2.10;;
45059;SDS011;30799;49.060;9.312;2023-04-10T10:25:29;2.15;;;2.05;;
45059;SDS011;30799;49.060;9.312;2023-04-10T10:27:56;2.67;;;2.47;;
45059;SDS011;30799;49.060;9.312;2023-04-10T10:30:25;2.47;;;2.28;;
45059;SDS011;30799;49.060;9.312;2023-04-10T10:32:57;2.50;;;2.30;;
45059;SDS011;30799;49.060;9.312;2023-04-10T10:35:29;2.22;;;2.13;;
45059;SDS011;30799;49.060;9.312;2023-04-10T10:37:59;2.65;;;2.45;;
45059;SDS011;30799;49.060;9.312;2023-04-10T10:40:31;2.30;;;2.10;;
45059;SDS011;30799;49.060;9.312;2023-04-10T10:43:04;2.15;;;2.05;;
45059;SDS011;30799;49.060;9.312;2023-04-10T10:45:35;2.58;;;2.38;;
45059;SDS011;30799;49.060;9.312;2023-04-10T10:48:06;2.30;;;2.10;;
45059;SDS011;30799;49.060;9.312;2023-04-10T10:53:43;2.10;;;2.00;;
45059;SDS011;30799;49.060;9.312;2023-04-10T10:58:52;2.22;;;2.03;;
45059;SDS011;30799;49.060;9.312;2023-04-10T11:01:21;2.30;;;2.13;;
45059;SDS011;30799;49.060;9.312;2023-04-10T11:03:48;2.38;;;2.20;;
45059;SDS011;30799;49.060;9.312;2023-04-10T11:06:16;2.28;;;2.17;;
45059;SDS011;30799;49.060;9.312;2023-04-10T11:08:45;2.20;;;2.10;;
45059;SDS011;30799;49.060;9.312;2023-04-10T11:11:19;2.20;;;2.10;;
45059;SDS011;30799;49.060;9.312;2023-04-10T11:16:23;2.15;;;1.95;;
45059;SDS011;30799;49.060;9.312;2023-04-10T11:19:07;2.50;;;2.30;;
45059;SDS011;30799;49.060;9.312;2023-04-10T11:22:00;1.85;;;1.75;;
45059;SDS011;30799;49.060;9.312;2023-04-10T11:24:49;2.08;;;1.98;;
45059;SDS011;30799;49.060;9.312;2023-04-10T11:27:42;2.13;;;2.03;;
45059;SDS011;30799;49.060;9.312;2023-04-10T11:30:30;2.10;;;2.00;;
45059;SDS011;30799;49.060;9.312;2023-04-10T11:32:59;2.50;;;2.30;;
45059;SDS011;30799;49.060;9.312;2023-04-10T11:35:27;2.15;;;2.05;;
45059;SDS011;30799;49.060;9.312;2023-04-10T11:38:09;2.33;;;2.22;;
45059;SDS011;30799;49.060;9.312;2023-04-10T11:40:51;2.40;;;2.20;;
45059;SDS011;30799;49.060;9.312;2023-04-10T11:43:19;2.30;;;2.20;;
45059;SDS011;30799;49.060;9.312;2023-04-10T11:45:46;2.10;;;2.00;;
45059;SDS011;30799;49.060;9.312;2023-04-10T11:48:13;2.38;;;2.20;;
45059;SDS011;30799;49.060;9.312;2023-04-10T11:50:42;2.10;;;2.00;;
45059;SDS011;30799;49.060;9.312;2023-04-10T11:53:18;2.25;;;2.13;;
45059;SDS011;30799;49.060;9.312;2023-04-10T11:55:46;1.80;;;1.70;;
45059;SDS011;30799;49.060;9.312;2023-04-10T11:58:23;2.08;;;1.98;;
45059;SDS011;30799;49.060;9.312;2023-04-10T12:03:36;2.17;;;2.08;;
45059;SDS011;30799;49.060;9.312;2023-04-10T12:06:05;2.00;;;1.90;;
45059;SDS011;30799;49.060;9.312;2023-04-10T12:08:38;2.08;;;1.98;;
45059;SDS011;30799;49.060;9.312;2023-04-10T12:11:07;2.10;;;2.00;;
45059;SDS011;30799;49.060;9.312;2023-04-10T12:13:35;2.00;;;1.90;;
45059;SDS011;30799;49.060;9.312;2023-04-10T12:16:03;2.13;;;2.03;;
45059;SDS011;30799;49.060;9.312;2023-04-10T12:18:35;1.88;;;1.77;;
45059;SDS011;30799;49.060;9.312;2023-04-10T12:21:02;2.20;;;2.00;;
45059;SDS011;30799;49.060;9.312;2023-04-10T12:23:35;2.30;;;2.10;;
45059;SDS011;30799;49.060;9.312;2023-04-10T12:26:07;2.10;;;2.00;;
45059;SDS011;30799;49.060;9.312;2023-04-10T12:28:36;2.00;;;1.90;;
45059;SDS011;30799;49.060;9.312;2023-04-10T12:31:04;1.92;;;1.83;;
45059;SDS011;30799;49.060;9.312;2023-04-10T12:33:31;1.85;;;1.75;;
45059;SDS011;30799;49.060;9.312;2023-04-10T12:35:58;1.90;;;1.80;;
45059;SDS011;30799;49.060;9.312;2023-04-10T12:38:34;1.83;;;1.73;;
45059;SDS011;30799;49.060;9.312;2023-04-10T12:41:02;2.30;;;2.10;;
45059;SDS011;30799;49.060;9.312;2023-04-10T12:43:32;2.00;;;1.90;;
45059;SDS011;30799;49.060;9.312;2023-04-10T12:46:08;2.47;;;2.28;;
45059;SDS011;30799;49.060;9.312;2023-04-10T12:48:36;2.13;;;2.03;;
45059;SDS011;30799;49.060;9.312;2023-04-10T12:51:02;2.03;;;1.92;;
45059;SDS011;30799;49.060;9.312;2023-04-10T12:53:29;2.22;;;2.05;;
45059;SDS011;30799;49.060;9.312;2023-04-10T12:56:01;1.88;;;1.77;;
45059;SDS011;30799;49.060;9.312;2023-04-10T12:58:30;2.17;;;2.00;;
45059;SDS011;30799;49.060;9.312;2023-04-10T13:00:58;1.80;;;1.70;;
45059;SDS011;30799;49.060;9.312;2023-04-10T13:03:29;2.20;;;2.10;;
45059;SDS011;30799;49.060;9.312;2023-04-10T13:05:57;2.05;;;1.95;;
45059;SDS011;30799;49.060;9.312;2023-04-10T13:08:24;2.08;;;1.98;;
45059;SDS011;30799;49.060;9.312;2023-04-10T13:10:51;2.13;;;2.03;;
45059;SDS011;30799;49.060;9.312;2023-04-10T13:13:17;1.70;;;1.60;;
45059;SDS011;30799;49.060;9.312;2023-04-10T13:15:44;1.95;;;1.85;;
45059;SDS011;30799;49.060;9.312;2023-04-10T13:18:11;2.03;;;1.92;;
45059;SDS011;30799;49.060;9.312;2023-04-10T13:20:38;1.90;;;1.80;;
45059;SDS011;30799;49.060;9.312;2023-04-10T13:23:06;2.00;;;1.90;;
45059;SDS011;30799;49.060;9.312;2023-04-10T13:25:33;2.00;;;1.90;;
45059;SDS011;30799;49.060;9.312;2023-04-10T13:28:05;1.90;;;1.80;;
45059;SDS011;30799;49.060;9.312;2023-04-10T13:30:39;2.08;;;1.95;;
45059;SDS011;30799;49.060;9.312;2023-04-10T13:33:07;1.80;;;1.70;;
45059;SDS011;30799;49.060;9.312;2023-04-10T13:35:34;1.83;;;1.73;;
45059;SDS011;30799;49.060;9.312;2023-04-10T13:38:01;1.73;;;1.63;;
45059;SDS011;30799;49.060;9.312;2023-04-10T13:40:28;1.73;;;1.63;;
45059;SDS011;30799;49.060;9.312;2023-04-10T13:42:55;1.73;;;1.63;;
45059;SDS011;30799;49.060;9.312;2023-04-10T13:45:21;1.70;;;1.60;;
45059;SDS011;30799;49.060;9.312;2023-04-10T13:47:48;1.77;;;1.67;;
45059;SDS011;30799;49.060;9.312;2023-04-10T13:50:15;1.75;;;1.65;;
45059;SDS011;30799;49.060;9.312;2023-04-10T13:52:42;1.70;;;1.60;;
45059;SDS011;30799;49.060;9.312;2023-04-10T13:55:08;1.40;;;1.33;;
45059;SDS011;30799;49.060;9.312;2023-04-10T13:57:35;1.88;;;1.77;;
45059;SDS011;30799;49.060;9.312;2023-04-10T14:00:02;1.77;;;1.67;;
45059;SDS011;30799;49.060;9.312;2023-04-10T14:02:29;2.05;;;1.90;;
45059;SDS011;30799;49.060;9.312;2023-04-10T14:04:56;1.90;;;1.80;;
45059;SDS011;30799;49.060;9.312;2023-04-10T14:07:23;1.90;;;1.80;;
45059;SDS011;30799;49.060;9.312;2023-04-10T14:09:50;1.92;;;1.83;;
45059;SDS011;30799;49.060;9.312;2023-04-10T14:12:16;1.90;;;1.80;;
45059;SDS011;30799;49.060;9.312;2023-04-10T14:14:44;1.60;;;1.50;;
45059;SDS011;30799;49.060;9.312;2023-04-10T14:17:11;1.90;;;1.80;;
45059;SDS011;30799;49.060;9.312;2023-04-10T14:19:37;1.90;;;1.80;;
45059;SDS011;30799;49.060;9.312;2023-04-10T14:22:04;1.60;;;1.50;;
45059;SDS011;30799;49.060;9.312;2023-04-10T14:24:31;1.60;;;1.50;;
45059;SDS011;30799;49.060;9.312;2023-04-10T14:26:58;1.63;;;1.52;;
45059;SDS011;30799;49.060;9.312;2023-04-10T14:29:27;1.80;;;1.70;;
45059;SDS011;30799;49.060;9.312;2023-04-10T14:32:04;1.50;;;1.40;;
45059;SDS011;30799;49.060;9.312;2023-04-10T14:34:31;1.88;;;1.77;;
45059;SDS011;30799;49.060;9.312;2023-04-10T14:36:57;1.90;;;1.80;;
45059;SDS011;30799;49.060;9.312;2023-04-10T14:39:24;1.67;;;1.58;;
45059;SDS011;30799;49.060;9.312;2023-04-10T14:41:51;2.03;;;1.92;;
45059;SDS011;30799;49.060;9.312;2023-04-10T14:44:18;1.75;;;1.65;;
45059;SDS011;30799;49.060;9.312;2023-04-10T14:46:44;1.90;;;1.80;;
45059;SDS011;30799;49.060;9.312;2023-04-10T14:49:11;1.50;;;1.40;;
45059;SDS011;30799;49.060;9.312;2023-04-10T14:51:41;1.83;;;1.73;;
45059;SDS011;30799;49.060;9.312;2023-04-10T14:54:08;1.52;;;1.42;;
45059;SDS011;30799;49.060;9.312;2023-04-10T14:56:36;1.70;;;1.60;;
45059;SDS011;30799;49.060;9.312;2023-04-10T14:59:02;1.80;;;1.70;;
45059;SDS011;30799;49.060;9.312;2023-04-10T15:01:29;1.70;;;1.60;;
45059;SDS011;30799;49.060;9.312;2023-04-10T15:03:56;1.70;;;1.60;;
45059;SDS011;30799;49.060;9.312;2023-04-10T15:06:23;1.65;;;1.55;;
45059;SDS011;30799;49.060;9.312;2023-04-10T15:08:53;1.92;;;1.83;;
45059;SDS011;30799;49.060;9.312;2023-04-10T15:11:20;1.77;;;1.67;;
45059;SDS011;30799;49.060;9.312;2023-04-10T15:13:47;1.67;;;1.58;;
45059;SDS011;30799;49.060;9.312;2023-04-10T15:16:14;1.50;;;1.40;;
45059;SDS011;30799;49.060;9.312;2023-04-10T15:18:41;1.80;;;1.70;;
45059;SDS011;30799;49.060;9.312;2023-04-10T15:21:07;1.70;;;1.60;;